createdAt,value
2022-10-06T00:00:56.144Z,16.27
2022-10-06T00:03:24.280Z,16.83
2022-10-06T00:05:52.583Z,20.53
2022-10-06T00:08:20.767Z,21.53
2022-10-06T00:10:48.841Z,20.47
2022-10-06T00:13:18.320Z,15.90
2022-10-06T00:15:46.354Z,22.60
2022-10-06T00:18:14.414Z,15.00
2022-10-06T00:20:43.449Z,19.90
2022-10-06T00:23:12.132Z,17.90
2022-10-06T00:25:40.214Z,17.93
2022-10-06T00:28:08.926Z,17.53
2022-10-06T00:30:38.316Z,19.30
2022-10-06T00:33:06.446Z,19.23
2022-10-06T00:35:35.719Z,18.17
2022-10-06T00:38:04.875Z,17.60
2022-10-06T00:40:34.023Z,17.90
2022-10-06T00:43:05.059Z,15.67
2022-10-06T00:45:37.601Z,19.20
2022-10-06T00:48:11.258Z,20.63
2022-10-06T00:50:40.037Z,18.83
2022-10-06T00:53:08.720Z,20.77
2022-10-06T00:55:36.734Z,17.27
2022-10-06T00:58:06.666Z,16.90
2022-10-06T01:00:35.282Z,17.00
2022-10-06T01:03:10.230Z,14.73
2022-10-06T01:05:44.728Z,23.60
2022-10-06T01:08:12.863Z,15.30
2022-10-06T01:10:40.871Z,17.27
2022-10-06T01:13:10.519Z,18.77
2022-10-06T01:15:41.095Z,20.57
2022-10-06T01:18:14.451Z,18.43
2022-10-06T01:20:47.170Z,20.73
2022-10-06T01:23:17.431Z,15.50
2022-10-06T01:25:46.694Z,20.80
2022-10-06T01:28:15.777Z,15.47
2022-10-06T01:30:51.067Z,18.17
2022-10-06T01:33:19.198Z,19.97
2022-10-06T01:35:49.483Z,16.13
2022-10-06T01:38:20.076Z,17.93
2022-10-06T01:40:48.478Z,16.33
2022-10-06T01:43:16.494Z,17.80
2022-10-06T01:45:44.701Z,14.87
2022-10-06T01:48:12.867Z,17.37
2022-10-06T01:50:42.301Z,20.10
2022-10-06T01:53:10.580Z,15.20
2022-10-06T01:55:40.027Z,19.83
2022-10-06T01:58:08.075Z,17.23
2022-10-06T02:00:36.099Z,17.00
2022-10-06T02:03:04.503Z,15.23
2022-10-06T02:05:32.513Z,15.17
2022-10-06T02:08:01.769Z,20.60
2022-10-06T02:10:30.151Z,16.70
2022-10-06T02:12:59.531Z,17.00
2022-10-06T02:15:28.692Z,17.60
2022-10-06T02:17:56.747Z,20.37
2022-10-06T02:20:24.734Z,22.30
2022-10-06T02:22:52.813Z,18.00
2022-10-06T02:25:21.078Z,16.60
2022-10-06T02:27:49.111Z,17.57
2022-10-06T02:30:18.699Z,18.17
2022-10-06T02:32:46.811Z,19.70
2022-10-06T02:35:14.831Z,18.83
2022-10-06T02:37:42.848Z,14.70
2022-10-06T02:40:11.464Z,15.67
2022-10-06T02:42:39.796Z,18.73
2022-10-06T02:45:08.498Z,17.40
2022-10-06T02:47:38.383Z,16.57
2022-10-06T02:50:08.475Z,19.57
2022-10-06T02:52:38.567Z,19.37
2022-10-06T02:55:08.104Z,14.83
2022-10-06T02:57:36.112Z,15.67
2022-10-06T03:00:05.379Z,17.67
2022-10-06T03:02:33.996Z,20.00
2022-10-06T03:05:03.520Z,19.57
2022-10-06T03:07:31.520Z,18.60
2022-10-06T03:09:59.611Z,19.73
2022-10-06T03:12:27.607Z,20.93
2022-10-06T03:14:55.645Z,16.77
2022-10-06T03:17:23.658Z,17.33
2022-10-06T03:19:51.641Z,18.40
2022-10-06T03:22:21.019Z,15.30
2022-10-06T03:24:49.104Z,19.37
2022-10-06T03:27:17.100Z,15.53
2022-10-06T03:29:46.158Z,15.73
2022-10-06T03:32:14.349Z,16.17
2022-10-06T03:34:42.546Z,18.23
2022-10-06T03:37:10.643Z,16.40
2022-10-06T03:39:40.198Z,17.27
2022-10-06T03:42:08.295Z,13.50
2022-10-06T03:44:36.927Z,13.57
2022-10-06T03:47:05.152Z,19.30
2022-10-06T03:49:33.198Z,15.47
2022-10-06T03:52:01.203Z,14.60
2022-10-06T03:54:29.246Z,19.97
2022-10-06T03:56:58.619Z,18.40
2022-10-06T03:59:29.164Z,18.73
2022-10-06T04:01:57.228Z,12.37
2022-10-06T04:04:25.274Z,15.47
2022-10-06T04:06:53.295Z,18.13
2022-10-06T04:09:21.337Z,16.17
2022-10-06T04:11:49.626Z,19.20
2022-10-06T04:14:19.012Z,21.67
2022-10-06T04:16:48.713Z,18.60
2022-10-06T04:19:18.588Z,16.17
2022-10-06T04:21:48.057Z,21.87
2022-10-06T04:24:18.343Z,22.47
2022-10-06T04:26:48.906Z,20.47
2022-10-06T04:29:18.525Z,21.90
2022-10-06T04:31:47.025Z,21.57
2022-10-06T04:34:15.153Z,17.03
2022-10-06T04:36:44.062Z,19.20
2022-10-06T04:39:13.544Z,18.13
2022-10-06T04:41:46.649Z,18.53
2022-10-06T04:44:14.943Z,21.57
2022-10-06T04:46:45.203Z,16.33
2022-10-06T04:49:19.408Z,18.57
2022-10-06T04:51:48.907Z,17.53
2022-10-06T04:54:17.084Z,17.53
2022-10-06T04:56:45.066Z,16.57
2022-10-06T04:59:13.101Z,18.83
2022-10-06T05:01:41.090Z,16.93
2022-10-06T05:04:10.480Z,20.17
2022-10-06T05:06:41.224Z,21.40
2022-10-06T05:09:11.029Z,26.60
2022-10-06T05:11:39.169Z,19.83
2022-10-06T05:14:07.478Z,18.07
2022-10-06T05:16:37.592Z,20.37
2022-10-06T05:19:06.038Z,15.03
2022-10-06T05:21:35.726Z,15.47
2022-10-06T05:24:03.976Z,15.90
2022-10-06T05:26:33.493Z,17.67
2022-10-06T05:29:01.553Z,18.90
2022-10-06T05:31:31.786Z,16.47
2022-10-06T05:34:00.601Z,22.27
2022-10-06T05:36:30.493Z,20.23
2022-10-06T05:39:00.010Z,19.03
2022-10-06T05:41:30.020Z,17.13
2022-10-06T05:43:59.032Z,16.10
2022-10-06T05:46:29.138Z,17.30
2022-10-06T05:48:58.888Z,15.53
2022-10-06T05:51:32.270Z,16.60
2022-10-06T05:54:02.336Z,17.57
2022-10-06T05:56:31.494Z,18.67
2022-10-06T05:59:00.798Z,22.03
2022-10-06T06:01:31.317Z,15.27
2022-10-06T06:04:02.857Z,15.80
2022-10-06T06:06:33.184Z,22.80
2022-10-06T06:09:06.841Z,20.00
2022-10-06T06:11:36.204Z,17.77
2022-10-06T06:14:05.933Z,17.57
2022-10-06T06:16:33.856Z,19.00
2022-10-06T06:19:02.516Z,17.40
2022-10-06T06:21:30.956Z,19.90
2022-10-06T06:23:59.099Z,13.40
2022-10-06T06:26:30.291Z,13.52
2022-10-06T06:29:02.598Z,18.27
2022-10-06T06:31:32.596Z,18.92
2022-10-06T06:34:02.810Z,15.13
2022-10-06T06:36:35.640Z,17.30
2022-10-06T06:39:06.232Z,20.40
2022-10-06T06:41:38.233Z,17.73
2022-10-06T06:44:07.652Z,13.95
2022-10-06T06:49:09.782Z,14.32
2022-10-06T06:51:40.295Z,12.07
2022-10-06T06:54:08.984Z,13.88
2022-10-06T06:56:38.996Z,15.85
2022-10-06T06:59:10.958Z,14.10
2022-10-06T07:01:44.454Z,15.77
2022-10-06T07:04:14.010Z,14.55
2022-10-06T07:06:46.540Z,14.87
2022-10-06T07:09:14.545Z,14.32
2022-10-06T07:11:43.948Z,15.02
2022-10-06T07:14:13.084Z,14.45
2022-10-06T07:16:58.670Z,15.60
2022-10-06T07:19:53.275Z,11.15
2022-10-06T07:22:40.670Z,14.23
2022-10-06T07:25:18.604Z,10.73
2022-10-06T07:27:52.025Z,13.23
2022-10-06T07:30:21.749Z,12.43
2022-10-06T07:32:51.380Z,13.13
2022-10-06T07:35:20.190Z,10.43
2022-10-06T07:37:48.305Z,16.83
2022-10-06T07:40:16.642Z,12.02
2022-10-06T07:42:52.191Z,11.57
2022-10-06T07:45:39.358Z,14.25
2022-10-06T07:48:09.101Z,14.63
2022-10-06T07:50:39.517Z,10.38
2022-10-06T07:53:09.253Z,7.78
2022-10-06T07:55:40.126Z,14.63
2022-10-06T07:58:12.723Z,8.38
2022-10-06T08:00:42.638Z,9.40
2022-10-06T08:03:12.220Z,15.38
2022-10-06T08:05:40.271Z,8.25
2022-10-06T08:08:08.294Z,14.30
2022-10-06T08:10:36.350Z,15.90
2022-10-06T08:13:06.568Z,12.15
2022-10-06T08:15:34.904Z,11.15
2022-10-06T08:18:16.520Z,8.43
2022-10-06T08:20:54.181Z,11.10
2022-10-06T08:23:22.520Z,9.05
2022-10-06T08:25:51.867Z,8.07
2022-10-06T08:28:20.450Z,11.20
2022-10-06T08:30:49.372Z,8.43
2022-10-06T08:33:21.292Z,11.88
2022-10-06T08:35:49.645Z,13.18
2022-10-06T08:38:18.149Z,11.55
2022-10-06T08:40:47.577Z,11.82
2022-10-06T08:43:20.678Z,12.88
2022-10-06T08:45:49.427Z,10.98
2022-10-06T08:48:24.222Z,11.88
2022-10-06T08:51:06.745Z,8.43
2022-10-06T08:53:46.934Z,9.88
2022-10-06T08:56:19.114Z,10.85
2022-10-06T08:58:53.894Z,9.90
2022-10-06T09:01:24.596Z,10.13
2022-10-06T09:03:56.315Z,10.05
2022-10-06T09:06:38.012Z,10.68
2022-10-06T09:09:16.693Z,8.18
2022-10-06T09:11:55.839Z,9.18
2022-10-06T09:14:29.503Z,11.80
2022-10-06T09:17:02.326Z,10.82
2022-10-06T09:19:38.263Z,9.50
2022-10-06T09:22:13.227Z,9.05
2022-10-06T09:24:47.078Z,8.60
2022-10-06T09:27:20.088Z,11.25
2022-10-06T09:29:50.053Z,14.02
2022-10-06T09:32:19.666Z,7.93
2022-10-06T09:34:52.583Z,9.82
2022-10-06T09:37:20.874Z,10.88
2022-10-06T09:39:51.105Z,9.15
2022-10-06T09:42:21.958Z,8.90
2022-10-06T09:45:01.711Z,9.70
2022-10-06T09:47:40.124Z,11.77
2022-10-06T09:50:21.709Z,8.88
2022-10-06T09:53:21.732Z,10.52
2022-10-06T09:55:54.975Z,12.32
2022-10-06T09:58:29.584Z,12.98
2022-10-06T10:01:00.266Z,9.15
2022-10-06T10:03:51.527Z,10.40
2022-10-06T10:06:33.031Z,8.65
2022-10-06T10:09:29.103Z,7.95
2022-10-06T10:12:31.273Z,6.75
2022-10-06T10:15:04.119Z,9.55
2022-10-06T10:17:39.966Z,9.60
2022-10-06T10:20:23.432Z,8.65
2022-10-06T10:22:54.183Z,7.60
2022-10-06T10:25:36.695Z,7.82
2022-10-06T10:28:14.775Z,7.72
2022-10-06T10:30:51.090Z,5.60
2022-10-06T10:33:28.276Z,5.18
2022-10-06T10:35:58.157Z,4.43
2022-10-06T10:38:28.781Z,6.57
2022-10-06T10:41:01.235Z,5.55
2022-10-06T10:43:33.647Z,6.32
2022-10-06T10:46:07.417Z,5.13
2022-10-06T10:48:40.507Z,5.80
2022-10-06T10:51:12.456Z,4.78
2022-10-06T10:53:48.655Z,5.65
2022-10-06T10:56:20.550Z,7.15
2022-10-06T10:58:51.618Z,6.32
2022-10-06T11:01:30.863Z,6.55
2022-10-06T11:03:59.763Z,6.38
2022-10-06T11:07:00.250Z,5.05
2022-10-06T11:09:40.484Z,8.43
2022-10-06T11:12:20.956Z,5.22
2022-10-06T11:15:01.969Z,5.03
2022-10-06T11:17:44.191Z,5.38
2022-10-06T11:20:26.494Z,8.75
2022-10-06T11:23:00.597Z,6.20
2022-10-06T11:25:36.822Z,5.22
2022-10-06T11:28:17.316Z,5.30
2022-10-06T11:30:59.074Z,5.10
2022-10-06T11:33:32.397Z,5.32
2022-10-06T11:36:02.414Z,3.83
2022-10-06T11:38:41.370Z,7.45
2022-10-06T11:41:19.980Z,4.10
2022-10-06T11:43:53.421Z,6.90
2022-10-06T11:46:35.751Z,6.15
2022-10-06T11:49:46.384Z,4.57
2022-10-06T11:52:36.954Z,3.92
2022-10-06T11:55:14.754Z,5.47
2022-10-06T11:58:42.475Z,6.50
2022-10-06T12:01:51.521Z,15.25
2022-10-06T12:04:24.392Z,5.30
2022-10-06T12:06:55.022Z,4.25
2022-10-06T12:09:31.950Z,2.92
2022-10-06T12:12:01.602Z,5.32
2022-10-06T12:17:35.098Z,5.93
2022-10-06T12:20:15.188Z,4.80
2022-10-06T12:22:49.828Z,11.45
2022-10-06T12:25:27.032Z,3.17
2022-10-06T12:28:10.894Z,3.88
2022-10-06T12:30:57.269Z,4.15
2022-10-06T12:33:39.154Z,4.43
2022-10-06T12:36:19.023Z,4.50
2022-10-06T12:39:05.881Z,3.92
2022-10-06T12:41:57.804Z,3.90
2022-10-06T12:44:30.491Z,6.25
2022-10-06T12:47:04.044Z,4.47
2022-10-06T12:49:54.855Z,3.10
2022-10-06T12:52:38.137Z,4.63
2022-10-06T12:55:27.644Z,4.90
2022-10-06T12:57:55.854Z,4.13
2022-10-06T13:00:31.252Z,2.85
2022-10-06T13:03:01.104Z,3.25
2022-10-06T13:05:30.948Z,2.95
2022-10-06T13:08:00.599Z,6.15
2022-10-06T13:10:30.499Z,6.93
2022-10-06T13:12:59.076Z,4.18
2022-10-06T13:18:14.004Z,4.18
2022-10-06T13:20:47.309Z,6.25
2022-10-06T13:23:38.000Z,5.88
2022-10-06T13:26:08.594Z,3.95
2022-10-06T13:28:48.215Z,3.63
2022-10-06T13:31:22.062Z,5.35
2022-10-06T13:34:01.569Z,3.40
2022-10-06T13:36:33.647Z,3.40
2022-10-06T13:39:04.277Z,2.30
2022-10-06T13:41:37.050Z,7.07
2022-10-06T13:44:18.944Z,5.80
2022-10-06T13:46:51.486Z,2.53
2022-10-06T13:49:23.771Z,4.93
2022-10-06T13:51:54.972Z,4.05
2022-10-06T13:54:29.483Z,9.55
2022-10-06T13:56:58.615Z,3.63
2022-10-06T13:59:38.482Z,2.78
2022-10-06T14:02:24.283Z,2.45
2022-10-06T14:05:26.779Z,4.30
2022-10-06T14:08:02.279Z,2.47
2022-10-06T14:10:34.307Z,3.97
2022-10-06T14:13:02.916Z,4.88
2022-10-06T14:15:37.559Z,2.78
2022-10-06T14:18:06.201Z,2.70
2022-10-06T14:20:42.730Z,2.70
2022-10-06T14:23:40.171Z,4.35
2022-10-06T14:26:09.150Z,1.80
2022-10-06T14:28:37.229Z,2.75
2022-10-06T14:31:05.446Z,3.08
2022-10-06T14:33:34.059Z,2.13
2022-10-06T14:36:02.866Z,3.28
2022-10-06T14:38:31.175Z,3.20
2022-10-06T14:41:04.171Z,3.05
2022-10-06T14:43:32.886Z,3.38
2022-10-06T14:46:03.980Z,3.33
2022-10-06T14:48:34.258Z,5.82
2022-10-06T14:51:04.139Z,7.40
2022-10-06T14:53:32.597Z,6.97
2022-10-06T14:56:06.012Z,3.72
2022-10-06T14:58:38.165Z,2.97
2022-10-06T15:01:07.401Z,2.80
2022-10-06T15:03:35.976Z,2.97
2022-10-06T15:06:22.763Z,4.70
2022-10-06T15:08:52.067Z,4.32
2022-10-06T15:11:23.218Z,2.83
2022-10-06T15:13:51.741Z,2.63
2022-10-06T15:16:20.351Z,4.80
2022-10-06T15:18:48.417Z,3.60
2022-10-06T15:21:16.567Z,5.78
2022-10-06T15:23:44.564Z,4.95
2022-10-06T15:26:30.310Z,2.35
2022-10-06T15:29:02.997Z,4.80
2022-10-06T15:31:33.892Z,3.00
2022-10-06T15:34:03.543Z,3.50
2022-10-06T15:36:33.709Z,2.60
2022-10-06T15:39:05.940Z,5.38
2022-10-06T15:41:35.136Z,5.70
2022-10-06T15:44:06.392Z,3.97
2022-10-06T15:46:37.489Z,4.65
2022-10-06T15:49:07.011Z,4.93
2022-10-06T15:51:38.508Z,2.22
2022-10-06T15:54:06.968Z,6.35
2022-10-06T15:56:35.219Z,2.05
2022-10-06T15:59:03.267Z,4.10
2022-10-06T16:01:43.012Z,6.45
2022-10-06T16:04:29.071Z,5.63
2022-10-06T16:06:57.450Z,3.97
2022-10-06T16:09:27.654Z,4.70
2022-10-06T16:11:57.062Z,6.22
2022-10-06T16:14:26.005Z,7.53
2022-10-06T16:16:58.969Z,7.65
2022-10-06T16:19:28.050Z,3.30
2022-10-06T16:21:58.956Z,7.75
2022-10-06T16:24:27.771Z,8.05
2022-10-06T16:26:57.269Z,10.93
2022-10-06T16:29:25.744Z,6.68
2022-10-06T16:31:55.692Z,8.52
2022-10-06T16:34:25.436Z,9.68
2022-10-06T16:36:53.440Z,9.50
2022-10-06T16:39:24.609Z,9.68
2022-10-06T16:41:54.013Z,6.72
2022-10-06T16:44:22.014Z,8.52
2022-10-06T16:46:50.165Z,8.60
2022-10-06T16:49:19.843Z,10.80
2022-10-06T16:51:47.856Z,9.52
2022-10-06T16:54:17.219Z,13.52
2022-10-06T16:56:46.574Z,11.57
2022-10-06T16:59:16.648Z,8.57
2022-10-06T17:01:45.165Z,9.30
2022-10-06T17:04:15.197Z,7.03
2022-10-06T17:06:46.896Z,11.82
2022-10-06T17:09:17.029Z,12.32
2022-10-06T17:11:46.687Z,9.65
2022-10-06T17:14:15.099Z,10.70
2022-10-06T17:16:45.231Z,11.60
2022-10-06T17:19:15.526Z,8.98
2022-10-06T17:21:47.372Z,11.20
2022-10-06T17:24:17.821Z,7.43
2022-10-06T17:26:48.047Z,12.95
2022-10-06T17:29:18.716Z,10.70
2022-10-06T17:31:47.734Z,16.77
2022-10-06T17:34:20.829Z,21.20
2022-10-06T17:36:52.199Z,11.05
2022-10-06T17:39:22.333Z,8.20
2022-10-06T17:41:52.548Z,12.57
2022-10-06T17:44:23.222Z,7.95
2022-10-06T17:46:53.955Z,14.40
2022-10-06T17:49:24.001Z,14.25
2022-10-06T17:51:54.716Z,11.88
2022-10-06T17:54:24.373Z,14.25
2022-10-06T17:56:54.208Z,10.05
2022-10-06T17:59:24.010Z,12.55
2022-10-06T18:01:56.408Z,18.08
2022-10-06T18:04:24.862Z,13.73
2022-10-06T18:06:55.498Z,22.25
2022-10-06T18:09:23.993Z,18.45
2022-10-06T18:11:55.953Z,18.42
2022-10-06T18:14:26.098Z,32.15
2022-10-06T18:16:56.728Z,40.33
2022-10-06T18:19:28.562Z,36.25
2022-10-06T18:22:00.114Z,33.88
2022-10-06T18:24:30.129Z,27.23
2022-10-06T18:27:00.870Z,25.92
2022-10-06T18:29:32.009Z,28.00
2022-10-06T18:32:34.827Z,24.60
2022-10-06T18:37:38.567Z,22.55
2022-10-06T18:43:08.178Z,24.98
2022-10-06T18:45:58.861Z,28.75
2022-10-06T18:48:44.478Z,21.98
2022-10-06T18:51:12.490Z,22.80
2022-10-06T18:53:41.844Z,23.05
2022-10-06T18:56:10.772Z,26.48
2022-10-06T18:58:40.554Z,25.80
2022-10-06T19:01:09.165Z,23.92
2022-10-06T19:03:38.378Z,25.48
2022-10-06T19:06:06.877Z,23.98
2022-10-06T19:08:35.914Z,24.83
2022-10-06T19:11:24.598Z,31.02
2022-10-06T19:13:53.880Z,30.67
2022-10-06T19:16:22.068Z,32.80
2022-10-06T19:18:50.368Z,29.42
2022-10-06T19:21:18.418Z,30.60
2022-10-06T19:23:46.984Z,29.85
2022-10-06T19:26:16.345Z,31.25
2022-10-06T19:28:44.472Z,32.63
2022-10-06T19:31:18.717Z,34.55
2022-10-06T19:33:47.697Z,31.15
2022-10-06T19:36:18.323Z,33.00
2022-10-06T19:38:46.908Z,32.00
2022-10-06T19:41:32.735Z,35.50
2022-10-06T19:44:02.947Z,40.28
2022-10-06T19:46:31.129Z,43.35
2022-10-06T19:48:59.180Z,43.58
2022-10-06T19:51:27.212Z,47.80
2022-10-06T19:53:55.182Z,48.03
2022-10-06T19:56:25.472Z,43.08
2022-10-06T19:58:53.814Z,43.85
2022-10-06T20:01:21.902Z,41.92
2022-10-06T20:03:50.062Z,37.88
2022-10-06T20:06:18.201Z,28.25
2022-10-06T20:08:46.193Z,30.25
2022-10-06T20:11:15.634Z,28.08
2022-10-06T20:13:45.808Z,33.72
2022-10-06T20:16:17.342Z,25.73
2022-10-06T20:18:47.175Z,28.67
2022-10-06T20:21:17.506Z,25.27
2022-10-06T20:23:49.109Z,23.50
2022-10-06T20:26:19.955Z,26.53
2022-10-06T20:28:50.134Z,23.67
2022-10-06T20:31:23.139Z,24.33
2022-10-06T20:33:51.486Z,22.07
2022-10-06T20:36:20.317Z,25.53
2022-10-06T20:39:05.646Z,23.10
2022-10-06T20:41:34.156Z,28.90
2022-10-06T20:44:04.394Z,19.73
2022-10-06T20:46:34.134Z,19.93
2022-10-06T20:49:03.688Z,20.00
2022-10-06T20:51:32.527Z,17.47
2022-10-06T20:54:01.646Z,17.20
2022-10-06T20:56:29.646Z,17.03
2022-10-06T20:58:57.867Z,21.23
2022-10-06T21:01:27.289Z,19.10
2022-10-06T21:03:55.639Z,15.90
2022-10-06T21:06:24.855Z,18.50
2022-10-06T21:08:53.392Z,20.50
2022-10-06T21:11:23.228Z,20.17
2022-10-06T21:13:53.800Z,19.30
2022-10-06T21:16:24.552Z,19.40
2022-10-06T21:18:54.264Z,19.50
2022-10-06T21:21:22.238Z,19.70
2022-10-06T21:23:50.784Z,24.30
2022-10-06T21:26:20.920Z,22.33
2022-10-06T21:28:49.753Z,20.73
2022-10-06T21:31:20.033Z,16.93
2022-10-06T21:33:50.362Z,21.47
2022-10-06T21:36:21.454Z,22.27
2022-10-06T21:38:51.580Z,18.93
2022-10-06T21:41:31.813Z,19.53
2022-10-06T21:44:01.083Z,19.97
2022-10-06T21:46:30.367Z,21.27
2022-10-06T21:49:00.037Z,23.27
2022-10-06T21:51:31.091Z,26.23
2022-10-06T21:54:01.016Z,21.90
2022-10-06T21:56:31.991Z,22.23
2022-10-06T21:59:00.619Z,23.87
2022-10-06T22:01:31.241Z,21.37
2022-10-06T22:04:00.254Z,21.80
2022-10-06T22:06:30.374Z,19.93
2022-10-06T22:08:59.412Z,21.10
2022-10-06T22:11:29.652Z,21.07
2022-10-06T22:13:59.717Z,21.00
2022-10-06T22:16:29.922Z,20.33
2022-10-06T22:18:58.080Z,17.50
2022-10-06T22:21:27.366Z,19.87
2022-10-06T22:23:58.091Z,22.20
2022-10-06T22:26:27.480Z,19.40
2022-10-06T22:28:57.870Z,18.10
2022-10-06T22:31:27.235Z,19.33
2022-10-06T22:33:57.289Z,20.43
2022-10-06T22:36:26.444Z,20.80
2022-10-06T22:38:56.809Z,18.90
2022-10-06T22:41:25.240Z,26.63
2022-10-06T22:43:57.494Z,22.37
2022-10-06T22:46:26.418Z,22.60
2022-10-06T22:48:54.507Z,17.10
2022-10-06T22:51:23.170Z,25.40
2022-10-06T22:53:57.669Z,23.67
2022-10-06T22:56:28.915Z,23.97
2022-10-06T22:58:59.556Z,24.17
2022-10-06T23:01:28.605Z,21.47
2022-10-06T23:03:56.914Z,19.70
2022-10-06T23:06:25.110Z,22.73
2022-10-06T23:08:53.303Z,19.67
2022-10-06T23:11:22.993Z,21.97
2022-10-06T23:13:53.199Z,20.97
2022-10-06T23:16:22.183Z,19.73
2022-10-06T23:18:50.837Z,19.67
2022-10-06T23:21:21.869Z,21.93
2022-10-06T23:23:52.495Z,24.10
2022-10-06T23:26:21.355Z,20.77
2022-10-06T23:28:54.319Z,19.67
2022-10-06T23:31:22.773Z,19.23
2022-10-06T23:33:50.835Z,25.40
2022-10-06T23:36:19.371Z,17.83
2022-10-06T23:38:48.001Z,19.10
2022-10-06T23:41:16.186Z,24.00
2022-10-06T23:43:44.317Z,20.83
2022-10-06T23:46:14.016Z,22.43
2022-10-06T23:48:42.115Z,22.17
2022-10-06T23:51:12.044Z,20.27
2022-10-06T23:53:40.789Z,27.33
2022-10-06T23:56:09.503Z,22.43
2022-10-06T23:58:38.056Z,21.37
